createdAt,value
2022-09-22T00:01:27.482Z,75.48
2022-09-22T00:04:04.607Z,75.55
2022-09-22T00:06:44.965Z,75.76
2022-09-22T00:09:21.433Z,75.79
2022-09-22T00:11:55.957Z,75.74
2022-09-22T00:14:29.900Z,76.05
2022-09-22T00:17:03.869Z,76.10
2022-09-22T00:19:38.667Z,76.26
2022-09-22T00:22:11.534Z,76.26
2022-09-22T00:24:45.841Z,76.27
2022-09-22T00:27:18.811Z,76.31
2022-09-22T00:29:51.922Z,76.39
2022-09-22T00:32:24.921Z,76.40
2022-09-22T00:34:57.718Z,76.24
2022-09-22T00:37:30.374Z,76.30
2022-09-22T00:40:03.911Z,76.14
2022-09-22T00:42:37.181Z,76.35
2022-09-22T00:45:13.324Z,76.55
2022-09-22T00:47:48.410Z,76.64
2022-09-22T00:50:24.295Z,77.03
2022-09-22T00:53:04.216Z,77.37
2022-09-22T00:55:49.247Z,77.47
2022-09-22T00:58:26.479Z,77.31
2022-09-22T01:01:00.279Z,77.25
2022-09-22T01:03:33.977Z,77.37
2022-09-22T01:06:09.641Z,77.58
2022-09-22T01:08:44.158Z,77.21
2022-09-22T01:11:19.423Z,76.90
2022-09-22T01:14:32.323Z,76.60
2022-09-22T01:17:47.638Z,76.80
2022-09-22T01:20:41.060Z,77.12
2022-09-22T01:23:42.576Z,76.82
2022-09-22T01:26:32.497Z,76.79
2022-09-22T01:29:48.612Z,76.70
2022-09-22T01:32:34.060Z,76.72
2022-09-22T01:35:20.189Z,76.74
2022-09-22T01:38:18.683Z,76.64
2022-09-22T01:40:56.083Z,76.60
2022-09-22T01:43:45.379Z,76.38
2022-09-22T01:46:23.052Z,76.17
2022-09-22T01:48:57.088Z,75.93
2022-09-22T01:51:34.907Z,76.33
2022-09-22T01:54:39.452Z,76.43
2022-09-22T01:57:34.755Z,76.48
2022-09-22T02:00:10.447Z,76.58
2022-09-22T02:03:09.795Z,76.74
2022-09-22T02:05:56.214Z,76.99
2022-09-22T02:08:57.764Z,76.91
2022-09-22T02:11:30.626Z,77.16
2022-09-22T02:14:05.033Z,77.35
2022-09-22T02:16:39.188Z,77.55
2022-09-22T02:19:40.098Z,77.40
2022-09-22T02:22:13.673Z,77.61
2022-09-22T02:24:48.283Z,77.70
2022-09-22T02:27:32.872Z,77.73
2022-09-22T02:30:11.281Z,77.97
2022-09-22T02:32:48.338Z,78.02
2022-09-22T02:35:21.876Z,78.01
2022-09-22T02:38:15.796Z,78.16
2022-09-22T02:41:07.981Z,78.40
2022-09-22T02:44:00.448Z,78.35
2022-09-22T02:46:46.978Z,78.42
2022-09-22T02:49:21.662Z,78.72
2022-09-22T02:51:55.438Z,78.75
2022-09-22T02:54:29.903Z,78.43
2022-09-22T02:57:03.156Z,78.40
2022-09-22T02:59:35.937Z,78.76
2022-09-22T03:02:09.243Z,78.84
2022-09-22T03:04:42.477Z,78.98
2022-09-22T03:07:15.291Z,79.24
2022-09-22T03:09:48.621Z,79.32
2022-09-22T03:12:21.509Z,79.34
2022-09-22T03:14:54.383Z,79.38
2022-09-22T03:17:27.360Z,79.27
2022-09-22T03:20:00.254Z,79.24
2022-09-22T03:22:34.313Z,79.00
2022-09-22T03:25:09.748Z,79.28
2022-09-22T03:27:42.778Z,79.66
2022-09-22T03:30:15.993Z,79.94
2022-09-22T03:32:50.648Z,80.34
2022-09-22T03:35:23.777Z,80.71
2022-09-22T03:37:56.556Z,80.80
2022-09-22T03:40:29.722Z,80.91
2022-09-22T03:43:02.455Z,80.92
2022-09-22T03:45:35.795Z,80.58
2022-09-22T03:48:08.562Z,80.68
2022-09-22T03:50:41.449Z,80.51
2022-09-22T03:53:14.350Z,80.51
2022-09-22T03:55:47.569Z,80.78
2022-09-22T03:58:23.225Z,80.99
2022-09-22T04:00:56.097Z,81.20
2022-09-22T04:03:29.452Z,81.47
2022-09-22T04:06:02.957Z,81.64
2022-09-22T04:08:36.573Z,81.63
2022-09-22T04:11:09.643Z,81.67
2022-09-22T04:13:46.453Z,81.64
2022-09-22T04:16:18.436Z,81.35
2022-09-22T04:18:51.399Z,81.41
2022-09-22T04:21:24.740Z,81.43
2022-09-22T04:23:57.692Z,81.59
2022-09-22T04:26:31.010Z,81.57
2022-09-22T04:29:03.932Z,81.65
2022-09-22T04:31:37.128Z,81.66
2022-09-22T04:34:10.043Z,81.89
2022-09-22T04:36:43.488Z,81.96
2022-09-22T04:39:20.310Z,82.16
2022-09-22T04:41:50.782Z,82.18
2022-09-22T04:44:24.729Z,82.23
2022-09-22T04:46:57.617Z,82.29
2022-09-22T04:49:30.579Z,82.38
2022-09-22T04:52:04.563Z,82.38
2022-09-22T04:54:37.639Z,82.55
2022-09-22T04:57:11.192Z,82.53
2022-09-22T04:59:44.313Z,82.46
2022-09-22T05:02:17.370Z,82.49
2022-09-22T05:04:50.171Z,82.35
2022-09-22T05:07:23.831Z,82.34
2022-09-22T05:09:57.284Z,82.31
2022-09-22T05:12:31.867Z,82.18
2022-09-22T05:15:05.588Z,82.02
2022-09-22T05:17:39.366Z,81.90
2022-09-22T05:20:12.506Z,81.56
2022-09-22T05:22:47.120Z,81.42
2022-09-22T05:25:21.493Z,81.43
2022-09-22T05:27:58.365Z,81.35
2022-09-22T05:30:31.404Z,81.31
2022-09-22T05:33:04.639Z,81.25
2022-09-22T05:35:39.288Z,81.46
2022-09-22T05:38:12.433Z,81.57
2022-09-22T05:40:50.080Z,81.83
2022-09-22T05:43:23.709Z,82.23
2022-09-22T05:45:56.981Z,82.61
2022-09-22T05:48:31.750Z,83.05
2022-09-22T05:51:05.198Z,83.41
2022-09-22T05:53:37.920Z,83.66
2022-09-22T05:56:10.836Z,84.07
2022-09-22T05:58:43.850Z,84.75
2022-09-22T06:01:17.215Z,85.33
2022-09-22T06:03:50.449Z,85.93
2022-09-22T06:06:23.198Z,86.61
2022-09-22T06:08:56.864Z,86.58
2022-09-22T06:11:30.823Z,86.73
2022-09-22T06:14:03.961Z,86.66
2022-09-22T06:16:36.810Z,86.44
2022-09-22T06:19:10.443Z,85.88
2022-09-22T06:21:43.456Z,85.43
2022-09-22T06:24:16.552Z,84.86
2022-09-22T06:26:49.512Z,84.49
2022-09-22T06:29:23.750Z,83.80
2022-09-22T06:31:57.168Z,83.03
2022-09-22T06:34:30.182Z,82.63
2022-09-22T06:37:03.397Z,82.58
2022-09-22T06:39:37.855Z,82.13
2022-09-22T06:42:11.238Z,82.13
2022-09-22T06:44:45.059Z,81.81
2022-09-22T06:47:17.987Z,81.18
2022-09-22T06:49:50.765Z,80.43
2022-09-22T06:52:25.125Z,79.86
2022-09-22T06:54:59.984Z,79.51
2022-09-22T06:57:34.337Z,78.86
2022-09-22T07:00:08.989Z,78.15
2022-09-22T07:02:41.744Z,77.59
2022-09-22T07:05:14.895Z,77.15
2022-09-22T07:07:47.923Z,76.71
2022-09-22T07:10:20.736Z,76.50
2022-09-22T07:12:54.544Z,75.85
2022-09-22T07:15:29.058Z,75.38
2022-09-22T07:18:01.811Z,74.99
2022-09-22T07:20:36.022Z,74.68
2022-09-22T07:23:10.837Z,74.08
2022-09-22T07:25:44.799Z,73.49
2022-09-22T07:28:17.852Z,72.11
2022-09-22T07:30:50.718Z,71.27
2022-09-22T07:33:24.400Z,70.57
2022-09-22T07:36:16.542Z,70.17
2022-09-22T07:38:52.464Z,70.00
2022-09-22T07:41:28.995Z,69.79
2022-09-22T07:44:10.755Z,68.87
2022-09-22T07:46:44.353Z,68.34
2022-09-22T07:49:19.016Z,66.98
2022-09-22T07:51:55.355Z,66.64
2022-09-22T07:54:29.446Z,66.36
2022-09-22T07:57:04.115Z,65.95
2022-09-22T07:59:38.331Z,64.67
2022-09-22T08:02:11.938Z,63.18
2022-09-22T08:04:45.074Z,62.64
2022-09-22T08:07:18.114Z,61.58
2022-09-22T08:09:51.176Z,61.40
2022-09-22T08:12:25.223Z,61.04
2022-09-22T08:14:58.410Z,61.26
2022-09-22T08:17:31.344Z,60.67
2022-09-22T08:20:05.465Z,60.35
2022-09-22T08:22:39.344Z,60.12
2022-09-22T08:25:13.068Z,59.22
2022-09-22T08:27:45.944Z,58.41
2022-09-22T08:30:19.951Z,57.69
2022-09-22T08:32:54.125Z,57.83
2022-09-22T08:35:26.997Z,57.36
2022-09-22T08:37:59.822Z,57.13
2022-09-22T08:40:32.885Z,56.60
2022-09-22T08:43:06.348Z,56.35
2022-09-22T08:45:40.077Z,56.15
2022-09-22T08:48:40.419Z,55.59
2022-09-22T08:51:34.813Z,55.36
2022-09-22T08:54:08.943Z,55.71
2022-09-22T08:57:19.821Z,54.69
2022-09-22T09:00:09.289Z,54.37
2022-09-22T09:03:07.038Z,53.77
2022-09-22T09:06:05.667Z,53.32
2022-09-22T09:08:56.051Z,52.49
2022-09-22T09:11:51.635Z,51.75
2022-09-22T09:14:50.498Z,51.81
2022-09-22T09:17:35.965Z,51.11
2022-09-22T09:20:21.985Z,50.64
2022-09-22T09:22:58.309Z,50.96
2022-09-22T09:25:45.630Z,51.19
2022-09-22T09:28:35.659Z,51.12
2022-09-22T09:31:21.959Z,50.78
2022-09-22T09:34:03.091Z,50.62
2022-09-22T09:36:40.333Z,50.05
2022-09-22T09:39:31.923Z,49.43
2022-09-22T09:42:11.293Z,48.68
2022-09-22T09:44:45.489Z,48.75
2022-09-22T09:47:45.932Z,49.11
2022-09-22T09:50:20.535Z,49.10
2022-09-22T09:52:54.395Z,49.89
2022-09-22T09:55:27.915Z,48.64
2022-09-22T09:58:18.624Z,48.99
2022-09-22T10:01:01.559Z,49.15
2022-09-22T10:03:46.308Z,48.87
2022-09-22T10:06:19.966Z,47.85
2022-09-22T10:08:53.370Z,47.52
2022-09-22T10:11:32.138Z,47.43
2022-09-22T10:14:05.438Z,47.19
2022-09-22T10:16:38.380Z,47.29
2022-09-22T10:19:34.865Z,46.91
2022-09-22T10:22:28.998Z,46.73
2022-09-22T10:25:05.655Z,46.60
2022-09-22T10:27:38.780Z,46.23
2022-09-22T10:30:19.620Z,45.22
2022-09-22T10:33:21.143Z,45.60
2022-09-22T10:36:10.979Z,45.12
2022-09-22T10:38:44.017Z,44.90
2022-09-22T10:41:25.813Z,44.99
2022-09-22T10:44:37.508Z,45.13
2022-09-22T10:47:27.400Z,44.74
2022-09-22T10:50:07.605Z,44.55
2022-09-22T10:53:22.176Z,44.51
2022-09-22T10:56:23.809Z,45.04
2022-09-22T10:59:06.833Z,44.29
2022-09-22T11:02:07.904Z,44.02
2022-09-22T11:05:22.563Z,44.13
2022-09-22T11:08:23.877Z,44.32
2022-09-22T11:11:41.593Z,44.29
2022-09-22T11:14:51.147Z,44.25
2022-09-22T11:17:51.030Z,44.43
2022-09-22T11:20:55.548Z,43.72
2022-09-22T11:23:58.319Z,43.35
2022-09-22T11:26:57.318Z,44.14
2022-09-22T11:30:14.275Z,42.51
2022-09-22T11:33:06.862Z,42.87
2022-09-22T11:36:20.890Z,42.96
2022-09-22T11:39:03.859Z,42.81
2022-09-22T11:41:50.874Z,43.69
2022-09-22T11:44:44.037Z,43.73
2022-09-22T11:47:50.074Z,43.90
2022-09-22T11:50:57.097Z,43.90
2022-09-22T11:54:01.328Z,43.61
2022-09-22T11:56:41.433Z,44.00
2022-09-22T11:59:55.086Z,43.25
2022-09-22T12:02:40.848Z,43.23
2022-09-22T12:05:26.830Z,42.65
2022-09-22T12:08:24.361Z,43.15
2022-09-22T12:10:57.612Z,43.16
2022-09-22T12:13:32.059Z,42.48
2022-09-22T12:16:31.952Z,42.42
2022-09-22T12:19:26.137Z,42.45
2022-09-22T12:22:15.479Z,42.02
2022-09-22T12:24:49.133Z,42.42
2022-09-22T12:27:30.244Z,42.12
2022-09-22T12:30:11.354Z,42.54
2022-09-22T12:32:43.883Z,42.76
2022-09-22T12:35:31.409Z,42.55
2022-09-22T12:38:05.284Z,42.22
2022-09-22T12:40:40.414Z,42.55
2022-09-22T12:43:22.889Z,42.65
2022-09-22T12:45:57.373Z,42.75
2022-09-22T12:48:34.292Z,41.76
2022-09-22T12:51:32.563Z,42.04
2022-09-22T12:54:29.253Z,41.23
2022-09-22T12:57:09.872Z,41.10
2022-09-22T12:59:50.223Z,40.73
2022-09-22T13:02:35.550Z,40.78
2022-09-22T13:05:28.359Z,40.96
2022-09-22T13:08:01.396Z,41.11
2022-09-22T13:10:39.137Z,41.44
2022-09-22T13:13:14.638Z,41.80
2022-09-22T13:15:52.360Z,41.39
2022-09-22T13:18:44.253Z,40.90
2022-09-22T13:21:21.919Z,40.76
2022-09-22T13:24:00.197Z,40.53
2022-09-22T13:26:39.713Z,40.92
2022-09-22T13:29:19.591Z,40.78
2022-09-22T13:31:56.889Z,40.82
2022-09-22T13:34:35.984Z,40.95
2022-09-22T13:37:18.779Z,41.21
2022-09-22T13:39:55.764Z,41.49
2022-09-22T13:42:32.379Z,41.42
2022-09-22T13:45:17.307Z,41.45
2022-09-22T13:47:50.762Z,41.32
2022-09-22T13:50:25.018Z,40.92
2022-09-22T13:52:58.237Z,41.05
2022-09-22T13:55:37.287Z,41.11
2022-09-22T13:58:15.554Z,41.45
2022-09-22T14:01:13.220Z,41.75
2022-09-22T14:03:38.532Z,42.37
2022-09-22T14:06:20.904Z,42.92
2022-09-22T14:08:56.521Z,43.16
2022-09-22T14:11:33.741Z,43.45
2022-09-22T14:14:08.252Z,43.37
2022-09-22T14:16:57.618Z,43.93
2022-09-22T14:19:38.193Z,44.21
2022-09-22T14:22:24.222Z,44.71
2022-09-22T14:25:00.342Z,45.16
2022-09-22T14:27:39.159Z,45.76
2022-09-22T14:30:20.198Z,46.09
2022-09-22T14:32:59.426Z,46.33
2022-09-22T14:35:37.381Z,46.60
2022-09-22T14:38:19.735Z,46.74
2022-09-22T14:41:00.144Z,47.14
2022-09-22T14:43:40.399Z,47.53
2022-09-22T14:46:42.057Z,47.78
2022-09-22T14:49:42.206Z,48.06
2022-09-22T14:52:30.992Z,48.54
2022-09-22T14:55:16.013Z,49.16
2022-09-22T14:57:50.973Z,49.43
2022-09-22T15:00:41.656Z,49.49
2022-09-22T15:03:22.032Z,49.63
2022-09-22T15:05:56.324Z,49.91
2022-09-22T15:08:30.291Z,50.17
2022-09-22T15:11:03.687Z,50.49
2022-09-22T15:13:45.698Z,50.54
2022-09-22T15:16:41.392Z,50.44
2022-09-22T15:19:14.615Z,50.19
2022-09-22T15:21:48.794Z,50.25
2022-09-22T15:24:26.190Z,50.35
2022-09-22T15:27:00.325Z,50.40
2022-09-22T15:29:32.602Z,50.53
2022-09-22T15:32:07.157Z,50.85
2022-09-22T15:34:42.255Z,51.29
2022-09-22T15:37:22.522Z,51.79
2022-09-22T15:39:55.441Z,52.18
2022-09-22T15:42:28.905Z,52.45
2022-09-22T15:45:03.506Z,52.72
2022-09-22T15:47:39.520Z,52.96
2022-09-22T15:50:17.943Z,53.10
2022-09-22T15:52:51.416Z,53.14
2022-09-22T15:55:26.034Z,53.12
2022-09-22T15:58:00.595Z,53.27
2022-09-22T16:00:38.176Z,53.33
2022-09-22T16:03:28.286Z,53.58
2022-09-22T16:06:05.756Z,53.95
2022-09-22T16:08:46.482Z,54.06
2022-09-22T16:11:31.453Z,54.48
2022-09-22T16:14:04.247Z,54.79
2022-09-22T16:16:38.461Z,55.07
2022-09-22T16:19:12.108Z,55.78
2022-09-22T16:21:53.083Z,56.06
2022-09-22T16:24:28.158Z,56.40
2022-09-22T16:27:03.181Z,56.49
2022-09-22T16:29:37.913Z,56.63
2022-09-22T16:32:12.112Z,56.84
2022-09-22T16:34:46.026Z,56.94
2022-09-22T16:37:19.403Z,57.12
2022-09-22T16:39:52.264Z,57.37
2022-09-22T16:42:25.148Z,57.66
2022-09-22T16:45:04.487Z,57.80
2022-09-22T16:47:38.576Z,57.88
2022-09-22T16:50:12.881Z,58.11
2022-09-22T16:52:46.491Z,58.29
2022-09-22T16:55:19.973Z,58.55
2022-09-22T16:57:53.047Z,58.71
2022-09-22T17:00:26.582Z,59.14
2022-09-22T17:03:00.299Z,59.32
2022-09-22T17:05:34.419Z,59.61
2022-09-22T17:08:08.776Z,59.81
2022-09-22T17:10:41.802Z,60.07
2022-09-22T17:13:14.669Z,60.37
2022-09-22T17:15:50.310Z,60.94
2022-09-22T17:18:24.171Z,61.24
2022-09-22T17:20:57.191Z,61.33
2022-09-22T17:23:30.991Z,61.62
2022-09-22T17:26:12.956Z,61.92
2022-09-22T17:28:46.666Z,62.12
2022-09-22T17:31:19.632Z,62.32
2022-09-22T17:33:53.279Z,62.61
2022-09-22T17:36:28.594Z,63.19
2022-09-22T17:39:02.998Z,63.40
2022-09-22T17:41:36.150Z,63.63
2022-09-22T17:44:10.583Z,64.00
2022-09-22T17:46:45.447Z,64.03
2022-09-22T17:49:36.266Z,63.92
2022-09-22T17:52:30.807Z,63.77
2022-09-22T17:55:14.504Z,63.59
2022-09-22T17:57:47.901Z,63.55
2022-09-22T18:00:24.127Z,63.79
2022-09-22T18:02:59.425Z,63.40
2022-09-22T18:05:35.213Z,63.53
2022-09-22T18:08:09.116Z,63.34
2022-09-22T18:10:44.647Z,63.48
2022-09-22T18:13:19.272Z,63.90
2022-09-22T18:15:53.861Z,64.56
2022-09-22T18:18:27.677Z,64.16
2022-09-22T18:21:00.859Z,64.30
2022-09-22T18:23:34.227Z,64.41
2022-09-22T18:26:08.302Z,64.38
2022-09-22T18:28:41.513Z,64.09
2022-09-22T18:31:16.340Z,64.14
2022-09-22T18:33:49.760Z,64.19
2022-09-22T18:36:26.457Z,64.06
2022-09-22T18:38:59.603Z,63.99
2022-09-22T18:41:33.305Z,64.26
2022-09-22T18:44:07.531Z,64.64
2022-09-22T18:46:39.755Z,64.98
2022-09-22T18:49:12.564Z,64.58
2022-09-22T18:51:52.605Z,64.49
2022-09-22T18:54:25.658Z,64.36
2022-09-22T18:56:59.373Z,64.62
2022-09-22T18:59:32.120Z,65.36
2022-09-22T19:02:09.535Z,65.30
2022-09-22T19:04:40.352Z,65.55
2022-09-22T19:07:30.821Z,65.70
2022-09-22T19:10:04.233Z,65.25
2022-09-22T19:12:39.566Z,65.02
2022-09-22T19:15:16.952Z,64.92
2022-09-22T19:17:51.084Z,64.76
2022-09-22T19:20:25.288Z,64.94
2022-09-22T19:22:58.235Z,64.58
2022-09-22T19:25:32.530Z,64.25
2022-09-22T19:28:06.960Z,64.36
2022-09-22T19:30:41.683Z,64.51
2022-09-22T19:33:14.484Z,64.63
2022-09-22T19:35:47.357Z,64.72
2022-09-22T19:38:20.059Z,64.63
2022-09-22T19:40:55.144Z,64.74
2022-09-22T19:43:29.763Z,64.96
2022-09-22T19:46:02.742Z,64.83
2022-09-22T19:48:35.858Z,65.09
2022-09-22T19:51:08.736Z,64.49
2022-09-22T19:53:41.466Z,64.76
2022-09-22T19:56:14.473Z,64.26
2022-09-22T19:58:51.560Z,64.13
2022-09-22T20:01:43.554Z,64.11
2022-09-22T20:04:19.819Z,64.00
2022-09-22T20:06:52.583Z,63.83
2022-09-22T20:09:25.410Z,63.84
2022-09-22T20:11:58.733Z,63.85
2022-09-22T20:14:32.287Z,63.80
2022-09-22T20:17:08.621Z,63.89
2022-09-22T20:19:43.498Z,63.93
2022-09-22T20:22:28.617Z,64.13
2022-09-22T20:25:04.502Z,64.28
2022-09-22T20:27:40.243Z,63.98
2022-09-22T20:30:16.251Z,63.95
2022-09-22T20:32:50.707Z,63.77
2022-09-22T20:35:24.418Z,63.66
2022-09-22T20:37:59.672Z,63.54
2022-09-22T20:40:33.323Z,63.39
2022-09-22T20:43:06.724Z,63.27
2022-09-22T20:45:42.563Z,63.17
2022-09-22T20:48:19.956Z,63.11
2022-09-22T20:50:59.424Z,63.12
2022-09-22T20:53:35.276Z,63.00
2022-09-22T20:56:14.578Z,63.03
2022-09-22T20:58:49.357Z,63.12
2022-09-22T21:01:22.293Z,63.30
2022-09-22T21:03:56.107Z,63.44
2022-09-22T21:06:31.232Z,63.60
2022-09-22T21:09:21.668Z,63.64
2022-09-22T21:11:56.914Z,63.73
2022-09-22T21:14:31.460Z,63.76
2022-09-22T21:17:06.463Z,64.01
2022-09-22T21:19:39.733Z,64.21
2022-09-22T21:22:13.870Z,64.15
2022-09-22T21:24:48.634Z,63.99
2022-09-22T21:27:21.700Z,63.90
2022-09-22T21:29:54.729Z,63.80
2022-09-22T21:32:28.115Z,63.86
2022-09-22T21:35:01.327Z,63.84
2022-09-22T21:37:34.690Z,64.02
2022-09-22T21:40:09.637Z,64.27
2022-09-22T21:42:42.857Z,64.44
2022-09-22T21:45:16.005Z,64.68
2022-09-22T21:47:51.657Z,64.68
2022-09-22T21:50:24.873Z,64.70
2022-09-22T21:52:57.885Z,64.69
2022-09-22T21:55:30.687Z,64.66
2022-09-22T21:58:04.191Z,64.65
2022-09-22T22:00:51.678Z,64.61
2022-09-22T22:03:29.803Z,64.57
2022-09-22T22:06:18.788Z,64.71
2022-09-22T22:09:05.932Z,64.76
2022-09-22T22:11:42.276Z,64.90
2022-09-22T22:14:15.838Z,64.93
2022-09-22T22:16:56.401Z,64.46
2022-09-22T22:19:30.159Z,64.37
2022-09-22T22:22:03.339Z,64.24
2022-09-22T22:24:37.928Z,64.26
2022-09-22T22:27:13.881Z,64.04
2022-09-22T22:29:47.038Z,64.12
2022-09-22T22:32:19.875Z,63.95
2022-09-22T22:34:53.819Z,64.02
2022-09-22T22:37:26.630Z,64.00
2022-09-22T22:40:00.272Z,63.73
2022-09-22T22:42:33.471Z,63.81
2022-09-22T22:45:07.184Z,64.27
2022-09-22T22:47:39.981Z,64.89
2022-09-22T22:50:12.946Z,64.83
2022-09-22T22:52:47.221Z,65.38
2022-09-22T22:55:20.031Z,66.25
2022-09-22T22:57:53.595Z,67.01
2022-09-22T23:00:27.184Z,67.42
2022-09-22T23:03:00.685Z,68.17
2022-09-22T23:05:39.494Z,69.18
2022-09-22T23:08:10.485Z,69.94
2022-09-22T23:10:43.731Z,70.57
2022-09-22T23:13:17.131Z,71.32
2022-09-22T23:15:51.526Z,71.49
2022-09-22T23:18:23.464Z,71.89
2022-09-22T23:20:56.664Z,72.57
2022-09-22T23:23:30.168Z,73.25
2022-09-22T23:26:04.356Z,73.58
2022-09-22T23:28:39.669Z,73.96
2022-09-22T23:31:18.961Z,74.31
2022-09-22T23:33:53.862Z,74.63
2022-09-22T23:36:29.410Z,75.26
2022-09-22T23:39:06.861Z,75.81
2022-09-22T23:41:39.848Z,76.29
2022-09-22T23:44:12.604Z,76.65
2022-09-22T23:46:46.434Z,77.38
2022-09-22T23:49:19.370Z,77.91
2022-09-22T23:51:52.283Z,78.43
2022-09-22T23:54:25.655Z,78.91
2022-09-22T23:56:58.364Z,79.52
2022-09-22T23:59:31.072Z,80.27
